Time;durP1;ratioP1;P1;durP2;ratioP2;P2;SDS_P1;SDS_P2;PMS_P1;PMS_P2;Temp;Humidity;BMP_temperature;BMP_pressure;BME280_temperature;BME280_humidity;BME280_pressure;Samples;Min_cycle;Max_cycle;Signal;HPM_P1;HPM_P2
2022/06/14 00:00:54;;;;;;;5.75;2.50;;;;;;;13.13;89.10;96444.25;5034423;28;24976;-75
2022/06/14 00:03:21;;;;;;;15.07;2.40;;;;;;;13.05;90.33;96449.91;5043533;28;24803;-75
2022/06/14 00:05:49;;;;;;;3.40;2.13;;;;;;;13.10;88.34;96454.00;5035297;28;24451;-75
2022/06/14 00:08:16;;;;;;;2.50;1.90;;;;;;;12.97;89.61;96452.13;5035419;28;24998;-76
2022/06/14 00:10:45;;;;;;;3.58;2.35;;;;;;;12.92;90.92;96448.16;5023593;28;25050;-76
2022/06/14 00:13:12;;;;;;;7.30;2.30;;;;;;;12.95;91.70;96443.59;5033431;28;24447;-75
2022/06/14 00:15:39;;;;;;;4.68;2.30;;;;;;;13.02;90.58;96449.28;5049876;28;24816;-76
2022/06/14 00:18:06;;;;;;;4.40;2.17;;;;;;;13.14;88.36;96451.09;5046226;28;24447;-75
2022/06/14 00:20:32;;;;;;;7.03;2.33;;;;;;;12.91;91.49;96446.50;5031303;28;24439;-75
2022/06/14 00:22:59;;;;;;;3.90;2.50;;;;;;;12.90;92.04;96450.00;5052123;28;24522;-75
2022/06/14 00:25:28;;;;;;;3.42;2.60;;;;;;;12.97;92.12;96435.69;5037797;28;25007;-75
2022/06/14 00:27:56;;;;;;;3.72;2.13;;;;;;;13.05;91.42;96441.25;5049217;28;24792;-75
2022/06/14 00:30:25;;;;;;;3.85;2.65;;;;;;;13.13;90.27;96441.63;5035038;28;24467;-75
2022/06/14 00:32:52;;;;;;;4.25;2.42;;;;;;;13.15;90.28;96444.97;5042788;28;24540;-75
2022/06/14 00:35:18;;;;;;;3.33;2.05;;;;;;;13.05;90.49;96441.25;5032805;28;24999;-75
2022/06/14 00:37:45;;;;;;;3.58;2.08;;;;;;;12.98;89.35;96446.03;5040431;28;24439;-75
2022/06/14 00:40:14;;;;;;;4.00;2.40;;;;;;;12.72;92.56;96439.81;5038345;28;24440;-75
2022/06/14 00:42:41;;;;;;;3.53;2.00;;;;;;;12.70;92.84;96446.84;5030919;28;25004;-75
2022/06/14 00:45:48;;;;;;;3.20;2.08;;;;;;;12.74;92.78;96443.13;5039476;28;24443;-75
2022/06/14 00:48:21;;;;;;;3.35;2.03;;;;;;;12.88;88.67;96441.47;5052001;28;24540;-75
2022/06/14 00:50:54;;;;;;;5.63;2.63;;;;;;;12.85;88.56;96442.50;5017664;28;24460;-75
2022/06/14 00:53:25;;;;;;;4.82;2.22;;;;;;;12.64;89.33;96433.38;5040720;28;24442;-75
2022/06/14 00:55:57;;;;;;;2.20;1.90;;;;;;;12.33;92.77;96445.63;5051899;28;24988;-75
2022/06/14 00:58:27;;;;;;;4.18;2.08;;;;;;;12.16;94.24;96431.00;5036457;28;24438;-75
2022/06/14 01:01:00;;;;;;;5.88;2.97;;;;;;;12.16;95.03;96431.00;5048166;28;24438;-75
2022/06/14 01:03:34;;;;;;;3.30;1.98;;;;;;;12.22;93.72;96430.66;5032671;28;24455;-75
2022/06/14 01:06:08;;;;;;;3.85;2.25;;;;;;;12.29;92.36;96426.78;5044484;28;24832;-75
2022/06/14 01:08:39;;;;;;;2.92;2.30;;;;;;;12.20;92.25;96435.13;5051314;28;24804;-75
2022/06/14 01:11:09;;;;;;;5.45;2.22;;;;;;;12.10;92.34;96431.38;5032096;28;24459;-75
2022/06/14 01:13:38;;;;;;;6.07;2.63;;;;;;;11.96;92.38;96428.75;5043866;28;24871;-75
2022/06/14 01:16:09;;;;;;;3.97;1.98;;;;;;;11.82;93.98;96432.09;5050412;28;24438;-75
2022/06/14 01:18:36;;;;;;;3.70;2.00;;;;;;;11.78;94.09;96430.59;5032423;28;25036;-75
2022/06/14 01:21:03;;;;;;;2.42;2.03;;;;;;;11.78;94.78;96428.00;5038350;28;25241;-75
2022/06/14 01:23:31;;;;;;;3.15;2.42;;;;;;;11.86;93.01;96429.31;5051774;28;24442;-75
2022/06/14 01:26:08;;;;;;;4.90;2.53;;;;;;;11.87;93.47;96430.13;5037450;28;24471;-75
2022/06/14 01:28:37;;;;;;;3.05;2.10;;;;;;;11.78;94.88;96426.25;5033998;28;24440;-75
2022/06/14 01:31:05;;;;;;;3.55;2.45;;;;;;;11.82;94.67;96424.31;5051478;28;24447;-75
2022/06/14 01:33:37;;;;;;;3.47;2.43;;;;;;;11.91;92.49;96423.84;5042245;28;24866;-75
2022/06/14 01:36:09;;;;;;;3.97;2.72;;;;;;;11.73;95.48;96425.69;5031778;28;24451;-75
2022/06/14 01:38:37;;;;;;;3.90;2.47;;;;;;;11.53;98.62;96421.63;5049123;28;24443;-75
2022/06/14 01:41:09;;;;;;;5.88;2.97;;;;;;;11.54;97.33;96409.50;5046293;28;24435;-75
2022/06/14 01:43:52;;;;;;;4.18;2.20;;;;;;;11.52;97.74;96413.91;5034006;28;24446;-75
2022/06/14 01:46:23;;;;;;;3.10;2.30;;;;;;;11.50;99.90;96418.38;5051169;28;24435;-76
2022/06/14 01:51:54;;;;;;;3.88;2.40;;;;;;;11.63;97.07;96417.56;5034178;28;24442;-75
2022/06/14 01:54:28;;;;;;;2.20;2.00;;;;;;;11.62;96.86;96430.66;5051184;28;24489;-75
2022/06/14 01:57:08;;;;;;;5.82;2.10;;;;;;;11.65;94.13;96425.28;5038625;28;24436;-75
2022/06/14 01:59:45;;;;;;;4.13;2.08;;;;;;;11.63;92.02;96424.53;5040213;28;24447;-75
2022/06/14 02:02:21;;;;;;;2.63;2.03;;;;;;;11.40;94.17;96423.22;5031603;28;24432;-75
2022/06/14 02:04:56;;;;;;;2.97;1.90;;;;;;;11.21;97.12;96410.44;5050066;28;25028;-75
2022/06/14 02:07:31;;;;;;;3.33;2.00;;;;;;;11.21;97.86;96410.44;5043602;28;24444;-75
2022/06/14 02:10:04;;;;;;;3.13;2.30;;;;;;;11.22;97.75;96409.53;5031295;28;24469;-75
2022/06/14 02:12:38;;;;;;;2.57;1.97;;;;;;;11.32;95.80;96412.44;5047148;28;24522;-75
2022/06/14 02:15:12;;;;;;;5.27;2.43;;;;;;;11.52;92.62;96416.50;5019334;28;24431;-75
2022/06/14 02:17:44;;;;;;;3.92;2.45;;;;;;;11.36;95.42;96409.59;5050731;28;24439;-75
2022/06/14 02:20:16;;;;;;;3.47;2.60;;;;;;;11.21;97.17;96407.03;5037558;28;24531;-75
2022/06/14 02:22:59;;;;;;;3.92;2.38;;;;;;;11.22;95.25;96404.34;5031582;28;24486;-75
2022/06/14 02:25:33;;;;;;;3.95;2.55;;;;;;;11.18;94.92;96402.84;5044067;28;25003;-75
2022/06/14 02:28:04;;;;;;;5.03;2.70;;;;;;;10.99;98.62;96400.41;5042567;28;24431;-75
2022/06/14 02:30:33;;;;;;;4.72;2.90;;;;;;;10.98;100.00;96405.69;5034996;28;25006;-75
2022/06/14 02:33:05;;;;;;;9.10;2.88;;;;;;;10.98;100.00;96395.31;5049218;28;24435;-75
2022/06/14 02:35:38;;;;;;;3.92;2.60;;;;;;;11.06;100.00;96408.69;5043845;28;24446;-75
2022/06/14 02:38:11;;;;;;;3.80;2.15;;;;;;;11.11;100.00;96402.31;5030890;28;24820;-75
2022/06/14 02:40:45;;;;;;;8.40;2.78;;;;;;;11.14;99.90;96402.16;5040229;28;24432;-75
2022/06/14 02:43:17;;;;;;;3.63;2.78;;;;;;;11.13;100.00;96403.09;5033400;28;24431;-75
2022/06/14 02:45:48;;;;;;;4.70;2.67;;;;;;;11.05;99.76;96400.09;5030777;28;24897;-74
2022/06/14 02:48:19;;;;;;;3.10;2.35;;;;;;;11.08;98.85;96404.25;5041969;28;24820;-75
2022/06/14 02:50:52;;;;;;;3.43;2.23;;;;;;;11.03;98.28;96407.09;5049900;28;24451;-75
2022/06/14 02:53:29;;;;;;;2.88;2.13;;;;;;;10.96;97.44;96412.69;5014790;28;24443;-75
2022/06/14 02:56:03;;;;;;;3.58;2.33;;;;;;;10.88;96.99;96410.53;5038506;28;24443;-75
2022/06/14 02:58:36;;;;;;;2.88;2.10;;;;;;;10.91;95.92;96405.19;5050236;28;24505;-75
2022/06/14 03:01:08;;;;;;;4.00;2.35;;;;;;;10.87;97.05;96396.72;5032636;28;24447;-75
2022/06/14 03:03:40;;;;;;;4.57;2.40;;;;;;;10.92;95.19;96398.25;5032091;28;24440;-75
2022/06/14 03:06:13;;;;;;;4.75;2.33;;;;;;;10.76;96.79;96408.59;5036494;28;24988;-75
2022/06/14 03:08:46;;;;;;;4.25;2.63;;;;;;;10.66;97.67;96401.31;5030253;28;24443;-75
2022/06/14 03:11:25;;;;;;;3.50;2.38;;;;;;;10.49;99.47;96408.28;5046387;28;25057;-75
2022/06/14 03:13:57;;;;;;;3.53;2.30;;;;;;;10.45;100.00;96402.41;5024404;28;24442;-75
2022/06/14 03:16:32;;;;;;;5.13;2.58;;;;;;;10.39;100.00;96413.94;5049189;28;24829;-75
2022/06/14 03:19:05;;;;;;;3.85;2.40;;;;;;;10.47;100.00;96405.78;5045849;28;24470;-75
2022/06/14 03:21:36;;;;;;;4.35;2.63;;;;;;;10.57;100.00;96408.75;5033777;28;24439;-75
2022/06/14 03:24:10;;;;;;;2.65;2.40;;;;;;;10.54;100.00;96412.31;5017686;28;24435;-75
2022/06/14 03:26:46;;;;;;;4.47;2.67;;;;;;;10.39;100.00;96406.19;5049270;28;20775;-75
2022/06/14 03:29:20;;;;;;;3.45;2.20;;;;;;;10.39;100.00;96405.34;5037479;28;24444;-75
2022/06/14 03:31:51;;;;;;;3.92;2.42;;;;;;;10.46;100.00;96398.09;5046459;28;24459;-74
2022/06/14 03:34:24;;;;;;;3.03;2.22;;;;;;;10.57;98.64;96395.78;5035601;28;24984;-74
2022/06/14 03:36:52;;;;;;;2.95;2.08;;;;;;;10.44;100.00;96402.50;5039009;28;24439;-75
2022/06/14 03:39:23;;;;;;;3.53;2.50;;;;;;;10.48;99.81;96393.66;5032115;28;24994;-75
2022/06/14 03:41:54;;;;;;;4.32;2.30;;;;;;;10.37;100.00;96392.47;5034339;28;24546;-75
2022/06/14 03:44:24;;;;;;;2.55;1.95;;;;;;;10.18;100.00;96399.47;5026124;28;24438;-75
2022/06/14 03:47:08;;;;;;;7.05;2.50;;;;;;;10.17;100.00;96396.06;5053292;28;24438;-75
2022/06/14 03:49:35;;;;;;;4.10;2.40;;;;;;;10.27;100.00;96386.13;5045401;28;24432;-75
2022/06/14 03:52:13;;;;;;;2.83;2.22;;;;;;;10.31;99.48;96390.22;5052617;28;24972;-75
2022/06/14 03:54:53;;;;;;;6.70;2.90;;;;;;;10.25;100.00;96400.00;5021255;28;25003;-75
2022/06/14 03:57:37;;;;;;;3.55;2.15;;;;;;;10.14;100.00;96401.38;5053042;28;24972;-75
2022/06/14 04:00:11;;;;;;;4.03;2.65;;;;;;;10.19;100.00;96404.56;5039355;28;24474;-75
2022/06/14 04:02:55;;;;;;;6.22;2.67;;;;;;;10.37;100.00;96409.75;5019582;28;24442;-75
2022/06/14 04:05:35;;;;;;;2.88;2.10;;;;;;;10.33;100.00;96406.50;5052669;28;24442;-75
2022/06/14 04:08:14;;;;;;;5.18;2.83;;;;;;;10.37;100.00;96402.81;5039394;28;24436;-75
2022/06/14 04:10:45;;;;;;;4.45;2.42;;;;;;;10.44;100.00;96400.75;5049674;28;24458;-75
2022/06/14 04:13:19;;;;;;;2.53;2.17;;;;;;;10.36;100.00;96400.31;5039859;28;20774;-75
2022/06/14 04:15:51;;;;;;;4.05;2.85;;;;;;;10.39;100.00;96392.41;5037907;28;24455;-75
2022/06/14 04:18:36;;;;;;;3.13;2.40;;;;;;;10.54;100.00;96389.00;5024951;28;24837;-75
2022/06/14 04:21:12;;;;;;;4.30;2.47;;;;;;;10.65;100.00;96396.22;5051316;28;24435;-74
2022/06/14 04:23:53;;;;;;;3.33;2.63;;;;;;;10.64;100.00;96395.38;5027457;28;25000;-75
2022/06/14 04:26:26;;;;;;;3.90;2.75;;;;;;;10.77;100.00;96398.13;5033057;28;24455;-74
2022/06/14 04:28:59;;;;;;;4.28;2.90;;;;;;;10.96;100.00;96408.34;5040094;28;24475;-75
2022/06/14 04:31:31;;;;;;;4.75;2.60;;;;;;;11.05;100.00;96401.81;5036060;28;24452;-75
2022/06/14 04:34:07;;;;;;;4.72;2.97;;;;;;;11.10;100.00;96402.44;5046178;28;24793;-75
2022/06/14 04:36:38;;;;;;;5.30;3.22;;;;;;;11.26;100.00;96403.25;5032438;28;24436;-74
2022/06/14 04:39:10;;;;;;;4.30;2.85;;;;;;;11.49;100.00;96399.34;5036498;28;24868;-72
2022/06/14 04:41:42;;;;;;;4.18;2.70;;;;;;;11.78;100.00;96412.44;5042203;28;25038;-75
2022/06/14 04:44:21;;;;;;;5.72;2.60;;;;;;;11.68;100.00;96399.19;5042267;28;24451;-75
2022/06/14 04:46:52;;;;;;;3.00;2.30;;;;;;;11.66;100.00;96406.19;5028315;28;24462;-75
2022/06/14 04:49:24;;;;;;;4.20;3.10;;;;;;;11.68;100.00;96404.38;5038760;28;24462;-75
2022/06/14 04:51:54;;;;;;;5.15;2.88;;;;;;;11.66;100.00;96403.59;5033691;28;24841;-75
2022/06/14 04:54:26;;;;;;;3.97;3.27;;;;;;;11.73;100.00;96398.91;5032910;28;24475;-75
2022/06/14 04:56:59;;;;;;;4.20;2.97;;;;;;;11.83;100.00;96398.31;5033835;28;25010;-75
2022/06/14 04:59:33;;;;;;;5.40;2.90;;;;;;;12.01;100.00;96400.75;5049778;28;25015;-75
2022/06/14 05:02:05;;;;;;;4.28;3.05;;;;;;;12.20;100.00;96398.78;5034260;28;24439;-75
2022/06/14 05:04:36;;;;;;;5.03;3.37;;;;;;;12.33;100.00;96393.66;5032124;28;24439;-76
2022/06/14 05:07:09;;;;;;;4.70;2.90;;;;;;;12.50;100.00;96388.31;5019598;28;24431;-75
2022/06/14 05:09:40;;;;;;;4.65;2.78;;;;;;;12.81;100.00;96391.63;5044191;28;24436;-75
2022/06/14 05:12:16;;;;;;;6.13;3.60;;;;;;;12.99;100.00;96384.44;5032303;28;24495;-76
2022/06/14 05:14:49;;;;;;;5.80;3.10;;;;;;;13.01;100.00;96382.56;5035884;28;25023;-76
2022/06/14 05:17:22;;;;;;;6.88;3.20;;;;;;;12.99;100.00;96385.28;5036293;28;24505;-75
2022/06/14 05:19:53;;;;;;;4.82;3.08;;;;;;;13.08;98.93;96389.88;5051849;28;24436;-75
2022/06/14 05:22:24;;;;;;;8.63;3.43;;;;;;;13.23;98.52;96384.66;5037878;28;24478;-76
2022/06/14 05:24:51;;;;;;;7.10;3.35;;;;;;;13.26;95.84;96393.13;5035773;28;24497;-75
2022/06/14 05:27:34;;;;;;;9.45;3.40;;;;;;;13.53;100.00;96395.75;5036780;28;25040;-75
2022/06/14 05:30:07;;;;;;;7.32;3.95;;;;;;;13.55;95.97;96393.88;5050909;28;24435;-75
2022/06/14 05:32:40;;;;;;;7.40;3.63;;;;;;;13.66;94.84;96392.34;5051567;28;24455;-75
2022/06/14 05:35:21;;;;;;;4.45;3.30;;;;;;;13.79;92.39;96388.00;5032789;28;24443;-75
2022/06/14 05:37:53;;;;;;;5.65;3.42;;;;;;;13.79;90.79;96382.78;5038816;28;24492;-75
2022/06/14 05:40:27;;;;;;;8.57;3.92;;;;;;;13.95;91.94;96385.22;5051404;28;24447;-75
2022/06/14 05:42:57;;;;;;;5.70;2.97;;;;;;;14.14;91.33;96383.06;5033808;28;24436;-76
2022/06/14 05:45:27;;;;;;;5.82;3.60;;;;;;;14.42;95.28;96381.19;5031524;28;24440;-75
2022/06/14 05:47:59;;;;;;;4.15;3.08;;;;;;;14.49;90.55;96383.28;5040876;28;24481;-75
2022/06/14 05:50:29;;;;;;;5.00;3.22;;;;;;;14.70;89.83;96390.59;5050219;22;24892;-76
2022/06/14 05:53:02;;;;;;;6.07;3.20;;;;;;;14.88;85.55;96388.47;5032488;28;24444;-76
2022/06/14 05:55:35;;;;;;;7.53;3.20;;;;;;;14.99;84.85;96393.78;5045493;28;24536;-74
2022/06/14 05:58:09;;;;;;;4.95;3.30;;;;;;;15.11;80.62;96386.84;5025772;28;24853;-77
2022/06/14 06:00:43;;;;;;;10.85;3.30;;;;;;;15.03;80.67;96389.16;5023257;28;24447;-77
2022/06/14 06:03:17;;;;;;;4.72;3.40;;;;;;;15.15;79.59;96389.13;5030293;28;24432;-77
2022/06/14 06:05:46;;;;;;;6.32;3.35;;;;;;;15.10;81.67;96386.00;5030743;28;24432;-78
2022/06/14 06:08:19;;;;;;;8.13;3.85;;;;;;;15.29;82.52;96389.91;5031159;28;24444;-76
2022/06/14 06:10:49;;;;;;;6.80;3.00;;;;;;;15.67;88.37;96387.16;5030284;28;24443;-76
2022/06/14 06:13:21;;;;;;;7.07;3.17;;;;;;;15.96;84.01;96390.25;5028777;28;24447;-76
2022/06/14 06:15:53;;;;;;;5.40;2.78;;;;;;;16.20;81.95;96387.56;5021084;28;24515;-76
2022/06/14 06:18:26;;;;;;;9.60;3.25;;;;;;;16.47;79.71;96394.28;5030872;28;24443;-76
2022/06/14 06:20:58;;;;;;;5.18;3.03;;;;;;;16.66;74.99;96390.13;5030780;28;24443;-76
2022/06/14 06:23:29;;;;;;;6.60;3.30;;;;;;;16.80;72.13;96388.25;5030675;28;24439;-76
2022/06/14 06:25:57;;;;;;;7.35;3.38;;;;;;;16.51;71.81;96391.31;5030168;28;24443;-76
2022/06/14 06:28:26;;;;;;;6.65;3.17;;;;;;;16.26;72.79;96392.34;5030887;28;24447;-77
2022/06/14 06:30:59;;;;;;;7.20;2.88;;;;;;;16.48;71.55;96390.72;5030531;28;24439;-76
2022/06/14 06:33:28;;;;;;;8.77;3.38;;;;;;;16.70;73.97;96385.50;5030658;28;24471;-75
2022/06/14 06:36:20;;;;;;;6.50;2.97;;;;;;;16.97;71.63;96386.94;5021137;28;24506;-73
2022/06/14 06:39:02;;;;;;;7.38;3.35;;;;;;;16.86;69.95;96390.38;5030635;28;24442;-74
2022/06/14 06:41:54;;;;;;;8.50;2.85;;;;;;;17.04;72.07;96383.72;5015357;28;24526;-73
2022/06/14 06:44:29;;;;;;;8.38;2.78;;;;;;;17.17;69.33;96381.78;5023964;28;24531;-74
2022/06/14 06:47:04;;;;;;;3.88;2.90;;;;;;;17.41;68.10;96392.09;5030032;28;24451;-74
2022/06/14 06:49:42;;;;;;;7.68;2.80;;;;;;;17.81;64.85;96386.28;5010842;28;24428;-74
2022/06/14 06:52:12;;;;;;;13.02;3.50;;;;;;;18.16;63.11;96387.75;5028072;28;24559;-74
2022/06/14 06:54:44;;;;;;;12.90;3.70;;;;;;;17.71;62.03;96380.09;5028321;28;24497;-75
2022/06/14 06:57:17;;;;;;;6.55;3.13;;;;;;;17.94;66.53;96380.00;5029434;28;24439;-74
2022/06/14 06:59:47;;;;;;;10.00;3.40;;;;;;;18.65;63.83;96367.91;5030357;28;24447;-75
2022/06/14 07:02:21;;;;;;;9.60;3.63;;;;;;;18.60;59.30;96370.06;5030056;28;24428;-75
2022/06/14 07:05:05;;;;;;;3.88;3.08;;;;;;;19.05;59.00;96370.53;5030053;28;24431;-73
2022/06/14 07:07:39;;;;;;;7.45;3.30;;;;;;;19.58;58.52;96380.75;5029102;28;24543;-74
2022/06/14 07:10:15;;;;;;;6.03;3.50;;;;;;;19.83;50.69;96378.56;5029960;28;24435;-74
2022/06/14 07:12:47;;;;;;;10.00;4.30;;;;;;;19.96;54.79;96379.13;5031314;28;24463;-75
2022/06/14 07:15:17;;;;;;;5.68;3.28;;;;;;;20.01;57.20;96376.88;5033527;28;24995;-75
2022/06/14 07:17:53;;;;;;;7.60;3.33;;;;;;;20.16;56.56;96376.47;5034224;28;24522;-75
2022/06/14 07:20:30;;;;;;;7.40;4.07;;;;;;;20.40;52.06;96381.28;5033132;28;24428;-75
2022/06/14 07:23:02;;;;;;;6.93;3.13;;;;;;;20.45;55.14;96374.59;5033524;28;24415;-75
2022/06/14 07:25:33;;;;;;;10.70;3.47;;;;;;;20.49;55.44;96373.38;5033967;28;24439;-75
2022/06/14 07:28:05;;;;;;;9.97;3.70;;;;;;;20.44;53.77;96375.59;5018576;28;24487;-75
2022/06/14 07:30:38;;;;;;;6.13;3.03;;;;;;;20.64;52.14;96373.75;5014090;28;24431;-75
2022/06/14 07:33:06;;;;;;;7.03;3.30;;;;;;;20.52;49.33;96381.00;5014496;28;24444;-75
2022/06/14 07:35:43;;;;;;;7.05;3.92;;;;;;;20.64;53.65;96380.81;5014119;28;24416;-75
2022/06/14 07:38:16;;;;;;;8.52;3.33;;;;;;;20.71;52.11;96376.63;5014467;28;24851;-74
2022/06/14 07:40:50;;;;;;;6.43;3.22;;;;;;;20.60;51.04;96382.06;5014298;28;24478;-75
2022/06/14 07:43:24;;;;;;;8.83;4.13;;;;;;;20.75;52.75;96376.19;5023586;28;25032;-75
2022/06/14 07:45:51;;;;;;;8.98;3.72;;;;;;;20.78;53.81;96375.91;5033768;28;24424;-75
2022/06/14 07:48:25;;;;;;;6.15;3.15;;;;;;;20.82;49.52;96371.19;5034000;28;24470;-75
2022/06/14 07:50:57;;;;;;;8.00;3.03;;;;;;;20.98;48.32;96373.19;5033675;28;24995;-75
2022/06/14 07:53:29;;;;;;;8.63;3.65;;;;;;;21.09;46.95;96373.00;5033495;28;25027;-75
2022/06/14 07:56:02;;;;;;;7.65;3.40;;;;;;;21.32;48.71;96372.59;5033689;28;24419;-75
2022/06/14 07:58:32;;;;;;;6.18;2.83;;;;;;;21.46;49.86;96372.13;5033770;28;24428;-75
2022/06/14 08:01:10;;;;;;;7.28;3.05;;;;;;;21.43;46.93;96368.00;5033688;28;24625;-75
2022/06/14 08:03:47;;;;;;;7.07;3.00;;;;;;;21.41;49.78;96369.94;5033646;28;24415;-75
2022/06/14 08:06:17;;;;;;;13.18;3.13;;;;;;;21.45;46.91;96366.03;5033281;28;25010;-75
2022/06/14 08:08:45;;;;;;;14.82;3.65;;;;;;;21.58;48.51;96364.81;5033712;28;24438;-75
2022/06/14 08:11:29;;;;;;;11.50;3.60;;;;;;;21.80;50.20;96366.19;5033543;28;24412;-75
2022/06/14 08:14:01;;;;;;;5.45;3.53;;;;;;;21.85;47.83;96359.50;5033368;28;24888;-75
2022/06/14 08:16:29;;;;;;;6.70;3.60;;;;;;;21.31;47.64;96361.22;5033470;28;24424;-75
2022/06/14 08:19:01;;;;;;;8.90;3.50;;;;;;;21.64;45.87;96372.13;5033446;28;24462;-75
2022/06/14 08:21:34;;;;;;;9.43;3.13;;;;;;;21.69;46.73;96362.81;5033548;28;24424;-75
2022/06/14 08:24:08;;;;;;;10.13;3.60;;;;;;;21.82;49.94;96362.41;5032859;28;24412;-75
2022/06/14 08:26:39;;;;;;;8.55;3.13;;;;;;;21.81;48.99;96373.97;5032882;28;24423;-75
2022/06/14 08:29:13;;;;;;;7.03;3.08;;;;;;;21.74;47.31;96360.53;5033269;28;24868;-75
2022/06/14 08:31:47;;;;;;;8.07;2.85;;;;;;;22.09;43.09;96360.66;5033027;28;24424;-75
2022/06/14 08:34:21;;;;;;;6.93;2.95;;;;;;;22.10;44.99;96362.31;5032919;28;24893;-75
2022/06/14 08:36:54;;;;;;;4.43;2.40;;;;;;;22.18;42.29;96354.50;5032739;28;24957;-75
2022/06/14 08:39:29;;;;;;;13.02;3.55;;;;;;;22.11;42.37;96354.25;5032978;28;24422;-75
2022/06/14 08:42:03;;;;;;;7.72;2.95;;;;;;;22.11;45.55;96361.34;5033118;28;24427;-75
2022/06/14 08:44:35;;;;;;;6.97;3.08;;;;;;;21.56;43.44;96351.81;5032705;28;24937;-75
2022/06/14 08:47:11;;;;;;;6.05;2.83;;;;;;;21.31;43.22;96355.97;5032586;28;25035;-75
2022/06/14 08:49:50;;;;;;;6.80;2.78;;;;;;;21.09;43.95;96354.56;5032108;28;24447;-75
2022/06/14 08:52:51;;;;;;;7.63;3.22;;;;;;;21.86;52.51;96350.59;5033007;28;24435;-75
2022/06/14 08:55:46;;;;;;;6.40;3.10;;;;;;;22.32;48.09;96355.75;5032530;28;25003;-75
2022/06/14 08:58:42;;;;;;;5.57;2.90;;;;;;;22.35;46.00;96342.25;5032440;28;24504;-75
2022/06/14 09:01:19;;;;;;;7.05;3.47;;;;;;;22.56;42.14;96342.69;5032538;28;24485;-75
2022/06/14 09:04:08;;;;;;;5.40;2.50;;;;;;;22.89;43.97;96348.97;5032771;28;24469;-75
2022/06/14 09:07:03;;;;;;;4.97;3.10;;;;;;;22.27;41.22;96344.84;5032526;28;24431;-75
2022/06/14 09:09:49;;;;;;;5.18;2.60;;;;;;;22.67;42.30;96336.31;5032413;28;24485;-75
2022/06/14 09:12:33;;;;;;;6.30;2.88;;;;;;;22.99;39.33;96335.69;5032381;28;24431;-74
2022/06/14 09:15:17;;;;;;;8.00;2.88;;;;;;;23.22;40.25;96327.16;5031840;28;24432;-73
2022/06/14 09:18:10;;;;;;;5.85;2.85;;;;;;;23.12;43.52;96329.94;5032329;28;24518;-73
2022/06/14 09:20:39;;;;;;;8.57;3.20;;;;;;;23.23;46.04;96327.00;5023441;28;24446;-73
2022/06/14 09:23:17;;;;;;;4.80;2.72;;;;;;;23.22;40.18;96330.63;5031611;28;24721;-73
2022/06/14 09:26:03;;;;;;;5.40;3.08;;;;;;;23.12;39.82;96328.13;5021028;28;24544;-75
2022/06/14 09:29:01;;;;;;;7.45;3.20;;;;;;;23.27;40.68;96324.84;5025664;28;24805;-73
2022/06/14 09:31:45;;;;;;;5.75;2.88;;;;;;;23.73;39.72;96315.56;5031349;28;24435;-73
2022/06/14 09:34:44;;;;;;;6.30;2.80;;;;;;;23.81;40.79;96315.56;5031788;28;24456;-75
2022/06/14 09:37:46;;;;;;;7.50;3.03;;;;;;;24.27;40.09;96317.66;5029368;28;25057;-74
2022/06/14 09:40:44;;;;;;;5.57;3.08;;;;;;;24.22;38.15;96320.81;5031701;28;24436;-73
2022/06/14 09:43:27;;;;;;;5.82;2.58;;;;;;;24.14;43.56;96326.94;5030490;28;24432;-73
2022/06/14 09:46:13;;;;;;;6.05;2.85;;;;;;;24.02;40.28;96322.97;5030666;28;24980;-73
2022/06/14 09:49:09;;;;;;;5.43;2.78;;;;;;;24.32;41.34;96310.84;5030688;28;24797;-72
2022/06/14 09:51:59;;;;;;;4.88;3.03;;;;;;;24.37;37.63;96302.44;5028785;28;25043;-73
2022/06/14 09:54:55;;;;;;;5.47;2.83;;;;;;;24.33;37.19;96299.28;5031760;28;24436;-74
2022/06/14 09:57:48;;;;;;;5.53;2.90;;;;;;;24.61;43.14;96299.72;5030937;28;24439;-73
2022/06/14 10:00:44;;;;;;;7.53;2.97;;;;;;;24.17;38.21;96304.59;5031198;28;24446;-73
2022/06/14 10:03:39;;;;;;;8.02;3.15;;;;;;;23.71;38.73;96306.94;5031104;28;24432;-73
2022/06/14 10:06:39;;;;;;;6.22;2.60;;;;;;;24.13;39.01;96298.81;5018417;28;24840;-73
2022/06/14 10:09:23;;;;;;;5.25;2.50;;;;;;;24.41;37.22;96300.28;5031216;28;25167;-73
2022/06/14 10:12:06;;;;;;;14.88;3.03;;;;;;;24.15;37.79;96298.66;5017932;28;24870;-73
2022/06/14 10:14:44;;;;;;;6.35;2.70;;;;;;;24.44;38.27;96299.97;5030716;28;25003;-73
2022/06/14 10:17:50;;;;;;;8.30;3.08;;;;;;;24.01;37.61;96301.97;5030559;28;24798;-74
2022/06/14 10:20:54;;;;;;;6.85;3.20;;;;;;;24.65;40.82;96291.44;5018970;28;24841;-73
2022/06/14 10:23:47;;;;;;;10.18;3.30;;;;;;;24.50;41.88;96291.31;5030577;28;24435;-73
2022/06/14 10:29:32;;;;;;;6.53;3.15;;;;;;;23.75;37.77;96283.63;5030891;28;24447;-74
2022/06/14 10:32:22;;;;;;;7.28;3.05;;;;;;;24.57;39.97;96284.34;5030561;28;24535;-73
2022/06/14 10:34:57;;;;;;;7.20;3.35;;;;;;;24.89;38.86;96285.22;5017411;28;24447;-73
2022/06/14 10:37:40;;;;;;;4.63;2.45;;;;;;;24.92;36.82;96282.22;5030961;28;24481;-73
2022/06/14 10:40:33;;;;;;;6.00;2.60;;;;;;;24.68;36.90;96280.50;5030603;28;24519;-73
2022/06/14 10:43:07;;;;;;;6.70;3.10;;;;;;;24.61;38.15;96277.72;5018016;28;24587;-73
2022/06/14 10:45:38;;;;;;;4.72;2.80;;;;;;;23.87;35.71;96280.47;5030629;28;24443;-73
2022/06/14 10:48:36;;;;;;;8.73;2.97;;;;;;;24.30;38.49;96272.34;5029544;28;25008;-73
2022/06/14 10:51:22;;;;;;;7.13;2.88;;;;;;;24.55;41.24;96271.28;5030857;28;24431;-72
2022/06/14 10:53:56;;;;;;;3.65;2.50;;;;;;;24.49;36.71;96269.31;5030396;28;25023;-74
2022/06/14 10:56:36;;;;;;;9.38;2.70;;;;;;;24.76;38.47;96270.69;5029738;28;24539;-73
2022/06/14 10:59:42;;;;;;;7.05;2.83;;;;;;;24.64;37.10;96266.78;5030544;28;24436;-73
2022/06/14 11:02:22;;;;;;;7.22;2.95;;;;;;;24.63;39.36;96273.09;5030075;28;24490;-73
2022/06/14 11:04:55;;;;;;;5.20;2.58;;;;;;;24.41;39.92;96273.81;5016395;28;24431;-73
2022/06/14 11:07:37;;;;;;;5.38;2.80;;;;;;;24.20;35.32;96263.75;5030354;28;24497;-73
2022/06/14 11:10:31;;;;;;;6.03;2.78;;;;;;;24.38;36.79;96270.47;5030152;28;24436;-72
2022/06/14 11:13:07;;;;;;;6.07;3.00;;;;;;;24.39;35.74;96266.03;5030276;28;24436;-76
2022/06/14 11:15:43;;;;;;;3.78;2.67;;;;;;;24.31;35.29;96266.03;5029695;28;24515;-73
2022/06/14 11:18:45;;;;;;;4.90;2.80;;;;;;;24.14;34.60;96268.72;5030552;28;24436;-73
2022/06/14 11:21:32;;;;;;;5.25;2.50;;;;;;;23.74;38.13;96268.78;5017543;28;24440;-73
2022/06/14 11:24:05;;;;;;;8.07;2.70;;;;;;;24.29;39.71;96252.16;5016628;28;24432;-73
2022/06/14 11:26:39;;;;;;;6.70;2.72;;;;;;;23.83;34.91;96250.06;5029056;28;24972;-74
2022/06/14 11:29:13;;;;;;;5.80;2.35;;;;;;;24.34;38.29;96249.81;5030336;28;24444;-73
2022/06/14 11:31:45;;;;;;;4.70;2.20;;;;;;;24.22;37.45;96245.88;5029939;28;24865;-73
2022/06/14 11:34:32;;;;;;;6.60;2.20;;;;;;;24.32;36.64;96249.16;5029894;28;24988;-73
2022/06/14 11:37:26;;;;;;;4.87;2.50;;;;;;;24.11;38.01;96247.06;5016770;28;24586;-73
2022/06/14 11:39:59;;;;;;;5.10;2.50;;;;;;;24.11;39.87;96241.78;5029969;28;24801;-75
2022/06/14 11:42:30;;;;;;;6.30;2.30;;;;;;;24.38;36.13;96233.41;5030119;28;24504;-74
2022/06/14 11:45:14;;;;;;;4.85;2.17;;;;;;;24.50;36.98;96236.53;5029982;28;24466;-75
2022/06/14 11:47:49;;;;;;;5.10;2.53;;;;;;;24.45;34.88;96238.06;5029703;28;25007;-74
2022/06/14 11:50:30;;;;;;;5.53;2.47;;;;;;;24.03;32.88;96237.31;5030345;28;24447;-73
2022/06/14 11:53:26;;;;;;;6.22;2.40;;;;;;;23.15;33.32;96231.84;5026260;28;24524;-74
2022/06/14 11:55:59;;;;;;;5.18;2.35;;;;;;;23.28;34.00;96228.72;5017255;28;24443;-74
2022/06/14 11:58:35;;;;;;;5.90;2.45;;;;;;;23.98;40.04;96228.22;5029720;28;24483;-73
2022/06/14 12:01:17;;;;;;;5.28;2.55;;;;;;;24.15;42.49;96227.22;5032979;28;24427;-73
2022/06/14 12:03:59;;;;;;;4.25;2.25;;;;;;;23.95;36.17;96220.63;5019090;28;24495;-73
2022/06/14 12:06:38;;;;;;;3.50;2.10;;;;;;;24.09;39.21;96222.59;5014054;28;24431;-73
2022/06/14 12:09:27;;;;;;;6.45;2.60;;;;;;;24.19;35.71;96223.22;5031125;28;24969;-73
2022/06/14 12:11:58;;;;;;;9.82;3.00;;;;;;;24.04;36.84;96219.63;5033157;28;24482;-73
2022/06/14 12:14:55;;;;;;;7.18;2.17;;;;;;;23.89;38.16;96217.66;5033436;28;24447;-72
2022/06/14 12:17:27;;;;;;;4.73;2.47;;;;;;;23.59;36.38;96219.16;5024424;28;24447;-73
2022/06/14 12:20:02;;;;;;;5.05;2.40;;;;;;;23.79;36.06;96217.00;5033050;28;24440;-74